Darstellungsparameter: Aktuell verwendete Einstellungen:
Skalierung der Graphiken ... ?
xyx+y,   Skalierungsfaktor:      Skalierung: Modus: x, Faktor: 1
Darstellungszeitraum ... ?
Vom - - bis: - -   Zeitraum: 11.04.2015 - 11.04.2015
Min/Max/Avg-Anzeige ... ?
Zeige MMA aktuell
Zeige MMA Monat
Zeige MMA alles
Zeige --A aktuell
Zeige --A Monat
Zeige --A alles
Keine MMA-Anzeige
MMA:
Keine MMA-Graphiken
MMA-Basis: 11.04.2015 - 11.04.2015
Quicknavigation für Darstellung... ?
Tage:      1T, 2T, 3T, 5T -1T -2T -3T -5T +1T +2T +3T +5T
Wochen: 1W, 2W, 3W -1W -2W -3W +1W +2W +3W
Monate: 1M, 3M, 6M -1M -3M -6M +1M +3M +6M
Jahre:    1J, 3J, 5J, 10J -1J -3J -5J -10J +1J +3J +5J +10J
Nutze für die Darstellung ... ?
Originaldaten oder Mittelwerte auf ...
Stundenbasis Tagesbasis Wochenbasis
Monatsbasis Jahresbasis      Datenbasis: Original-Daten
Darstellen als:
Statistik (Auto) Statistik J:M      Darstellung:
Zur Graphik,    zurück zur Übersicht aller Sensoren.
 
Tabellarische Datenbersicht: ?
 
Sensor: Nr:Datum:Temp:Feuchte:Taupunkt:
Aussen-T/F 1 11-04-2015 00:00:00 10.9 C 65 % 4.59 C
2 11-04-2015 00:05:00 10.9 C 64 % 4.37 C
3 11-04-2015 00:10:00 10.8 C 64 % 4.27 C
4 11-04-2015 00:15:00 10.9 C 64 % 4.37 C
5 11-04-2015 00:20:00 10.9 C 65 % 4.59 C
6 11-04-2015 00:25:00 10.9 C 64 % 4.37 C
7 11-04-2015 00:30:00 10.8 C 64 % 4.27 C
8 11-04-2015 00:35:00 10.7 C 65 % 4.4 C
9 11-04-2015 00:40:00 10.7 C 64 % 4.18 C
10 11-04-2015 00:45:00 10.7 C 66 % 4.62 C
11 11-04-2015 00:50:00 10.6 C 66 % 4.52 C
12 11-04-2015 00:55:00 10.4 C 65 % 4.11 C
13 11-04-2015 01:00:00 10.6 C 65 % 4.3 C
14 11-04-2015 01:05:00 10.7 C 65 % 4.4 C
15 11-04-2015 01:10:00 10.8 C 63 % 4.05 C
16 11-04-2015 01:15:00 10.9 C 64 % 4.37 C
17 11-04-2015 01:20:00 10.8 C 64 % 4.27 C
18 11-04-2015 01:25:00 10.7 C 64 % 4.18 C
19 11-04-2015 01:30:00 10.5 C 66 % 4.43 C
20 11-04-2015 01:35:00 10.3 C 66 % 4.24 C
21 11-04-2015 01:40:00 10.2 C 67 % 4.36 C
22 11-04-2015 01:45:00 10 C 67 % 4.16 C
23 11-04-2015 01:50:00 9.8 C 69 % 4.39 C
24 11-04-2015 01:55:00 9.6 C 70 % 4.41 C
25 11-04-2015 02:00:00 9.4 C 68 % 3.8 C
Sensor: Nr:Datum:Temp:Feuchte:Taupunkt:
Aussen-T/F 26 11-04-2015 02:05:00 9.4 C 68 % 3.8 C
27 11-04-2015 02:10:00 9.3 C 71 % 4.32 C
28 11-04-2015 02:15:00 9.2 C 71 % 4.22 C
29 11-04-2015 02:20:00 9.2 C 72 % 4.42 C
30 11-04-2015 02:25:00 9.1 C 71 % 4.13 C
31 11-04-2015 02:30:00 8.9 C 71 % 3.94 C
32 11-04-2015 02:35:00 8.9 C 71 % 3.94 C
33 11-04-2015 02:40:00 8.8 C 70 % 3.64 C
34 11-04-2015 02:45:00 8.8 C 70 % 3.64 C
35 11-04-2015 02:50:00 8.8 C 70 % 3.64 C
36 11-04-2015 02:55:00 8.7 C 70 % 3.54 C
37 11-04-2015 03:00:00 8.7 C 72 % 3.94 C
38 11-04-2015 03:05:00 8.7 C 70 % 3.54 C
39 11-04-2015 03:10:00 8.7 C 69 % 3.34 C
40 11-04-2015 03:15:00 8.8 C 68 % 3.23 C
41 11-04-2015 03:20:00 8.8 C 69 % 3.44 C
42 11-04-2015 03:25:00 8.9 C 69 % 3.53 C
43 11-04-2015 03:30:00 8.8 C 70 % 3.64 C
44 11-04-2015 03:35:00 8.7 C 70 % 3.54 C
45 11-04-2015 03:40:00 8.6 C 71 % 3.65 C
46 11-04-2015 03:45:00 8.6 C 73 % 4.04 C
47 11-04-2015 03:50:00 8.4 C 72 % 3.65 C
48 11-04-2015 03:55:00 8.7 C 69 % 3.34 C
49 11-04-2015 04:00:00 8.9 C 68 % 3.32 C
50 11-04-2015 04:05:00 9.3 C 66 % 3.28 C
Sensor: Nr:Datum:Temp:Feuchte:Taupunkt:
Aussen-T/F 51 11-04-2015 04:10:00 9.5 C 66 % 3.47 C
52 11-04-2015 04:15:00 9.6 C 67 % 3.78 C
53 11-04-2015 04:20:00 9.6 C 66 % 3.57 C
54 11-04-2015 04:25:00 9.6 C 66 % 3.57 C
55 11-04-2015 04:30:00 9.4 C 69 % 4.01 C
56 11-04-2015 04:35:00 9.1 C 71 % 4.13 C
57 11-04-2015 04:40:00 8.8 C 72 % 4.04 C
58 11-04-2015 04:45:00 8.6 C 74 % 4.24 C
59 11-04-2015 04:50:00 8.4 C 73 % 3.85 C
60 11-04-2015 04:55:00 8.3 C 73 % 3.75 C
61 11-04-2015 05:00:00 8.2 C 74 % 3.85 C
62 11-04-2015 05:05:00 8.2 C 74 % 3.85 C
63 11-04-2015 05:10:00 8.1 C 75 % 3.94 C
64 11-04-2015 05:15:00 8 C 75 % 3.85 C
65 11-04-2015 05:20:00 7.9 C 75 % 3.75 C
66 11-04-2015 05:25:00 7.9 C 75 % 3.75 C
67 11-04-2015 05:30:00 7.8 C 76 % 3.84 C
68 11-04-2015 05:35:00 7.8 C 76 % 3.84 C
69 11-04-2015 05:40:00 7.8 C 76 % 3.84 C
70 11-04-2015 05:45:00 7.7 C 76 % 3.75 C
71 11-04-2015 05:50:00 7.6 C 76 % 3.65 C
72 11-04-2015 05:55:00 7.6 C 76 % 3.65 C
73 11-04-2015 06:00:00 7.5 C 78 % 3.92 C
74 11-04-2015 06:05:00 7.4 C 77 % 3.64 C
75 11-04-2015 06:10:00 7.3 C 78 % 3.73 C
Sensor: Nr:Datum:Temp:Feuchte:Taupunkt:
Aussen-T/F 76 11-04-2015 06:15:00 7.3 C 77 % 3.54 C
77 11-04-2015 06:20:00 7.3 C 78 % 3.73 C
78 11-04-2015 06:25:00 7.3 C 79 % 3.91 C
79 11-04-2015 06:30:00 7.4 C 79 % 4 C
80 11-04-2015 06:35:00 7.7 C 76 % 3.75 C
81 11-04-2015 06:40:00 8.1 C 73 % 3.56 C
82 11-04-2015 06:45:00 8.5 C 72 % 3.75 C
83 11-04-2015 06:50:00 8.8 C 72 % 4.04 C
84 11-04-2015 06:55:00 8.7 C 73 % 4.14 C
85 11-04-2015 07:00:00 8.4 C 74 % 4.04 C
86 11-04-2015 07:05:00 8.2 C 74 % 3.85 C
87 11-04-2015 07:10:00 8.3 C 74 % 3.95 C
88 11-04-2015 07:15:00 8.6 C 73 % 4.04 C
89 11-04-2015 07:20:00 8.9 C 72 % 4.14 C
90 11-04-2015 07:25:00 9.2 C 70 % 4.02 C
91 11-04-2015 07:30:00 9.3 C 69 % 3.91 C
92 11-04-2015 07:35:00 9.3 C 69 % 3.91 C
93 11-04-2015 07:40:00 9.2 C 70 % 4.02 C
94 11-04-2015 07:45:00 9 C 71 % 4.03 C
95 11-04-2015 07:50:00 8.9 C 72 % 4.14 C
96 11-04-2015 07:55:00 8.8 C 72 % 4.04 C
97 11-04-2015 08:00:00 8.9 C 73 % 4.33 C
98 11-04-2015 08:05:00 9 C 72 % 4.23 C
99 11-04-2015 08:10:00 9.2 C 72 % 4.42 C
100 11-04-2015 08:15:00 9.3 C 72 % 4.52 C
Sensor: Nr:Datum:Temp:Feuchte:Taupunkt:
Aussen-T/F 101 11-04-2015 08:20:00 9.4 C 72 % 4.62 C
102 11-04-2015 08:25:00 9.6 C 72 % 4.81 C
103 11-04-2015 08:30:00 9.7 C 72 % 4.9 C
104 11-04-2015 08:35:00 9.7 C 73 % 5.1 C
105 11-04-2015 08:40:00 9.8 C 73 % 5.2 C
106 11-04-2015 08:45:00 10 C 72 % 5.19 C
107 11-04-2015 08:50:00 10.2 C 72 % 5.39 C
108 11-04-2015 08:55:00 10.4 C 74 % 5.97 C
109 11-04-2015 09:00:00 10.6 C 73 % 5.97 C
110 11-04-2015 09:05:00 10.8 C 72 % 5.96 C
111 11-04-2015 09:10:00 11.2 C 71 % 6.14 C
112 11-04-2015 09:15:00 11.9 C 71 % 6.82 C
113 11-04-2015 09:20:00 12.7 C 69 % 7.17 C
114 11-04-2015 09:25:00 13.3 C 67 % 7.31 C
115 11-04-2015 09:30:00 13.7 C 66 % 7.47 C
116 11-04-2015 09:35:00 14 C 66 % 7.76 C
117 11-04-2015 09:40:00 14.3 C 65 % 7.82 C
118 11-04-2015 09:45:00 14.6 C 64 % 7.87 C
119 11-04-2015 09:50:00 14.6 C 64 % 7.87 C
120 11-04-2015 09:55:00 14.7 C 65 % 8.2 C
121 11-04-2015 10:00:00 14.8 C 65 % 8.29 C
122 11-04-2015 10:05:00 15 C 65 % 8.48 C
123 11-04-2015 10:10:00 15.2 C 65 % 8.67 C
124 11-04-2015 10:15:00 15.2 C 65 % 8.67 C
125 11-04-2015 10:20:00 15.1 C 65 % 8.58 C
Sensor: Nr:Datum:Temp:Feuchte:Taupunkt:
Aussen-T/F 126 11-04-2015 10:25:00 14.9 C 66 % 8.61 C
127 11-04-2015 10:30:00 14.8 C 66 % 8.52 C
128 11-04-2015 10:35:00 14.8 C 67 % 8.74 C
129 11-04-2015 10:40:00 14.8 C 67 % 8.74 C
130 11-04-2015 10:45:00 14.9 C 67 % 8.83 C
131 11-04-2015 10:50:00 15 C 67 % 8.93 C
132 11-04-2015 10:55:00 15.2 C 66 % 8.9 C
133 11-04-2015 11:00:00 15.3 C 66 % 8.99 C
134 11-04-2015 11:05:00 15.4 C 66 % 9.09 C
135 11-04-2015 11:10:00 15.4 C 65 % 8.86 C
136 11-04-2015 11:15:00 15.5 C 65 % 8.96 C
137 11-04-2015 11:20:00 15.4 C 65 % 8.86 C
138 11-04-2015 11:25:00 15.4 C 66 % 9.09 C
139 11-04-2015 11:30:00 15.4 C 66 % 9.09 C
140 11-04-2015 11:35:00 15.6 C 66 % 9.28 C
141 11-04-2015 11:40:00 15.7 C 66 % 9.37 C
142 11-04-2015 11:45:00 15.8 C 66 % 9.47 C
143 11-04-2015 11:50:00 15.8 C 67 % 9.69 C
144 11-04-2015 11:55:00 15.9 C 66 % 9.56 C
145 11-04-2015 12:00:00 15.8 C 66 % 9.47 C
146 11-04-2015 12:05:00 15.7 C 66 % 9.37 C
147 11-04-2015 12:10:00 15.6 C 67 % 9.5 C
148 11-04-2015 12:15:00 15.7 C 67 % 9.6 C
149 11-04-2015 12:20:00 15.7 C 67 % 9.6 C
150 11-04-2015 12:25:00 15.7 C 67 % 9.6 C
Sensor: Nr:Datum:Temp:Feuchte:Taupunkt:
Aussen-T/F 151 11-04-2015 12:30:00 15.7 C 68 % 9.82 C
152 11-04-2015 12:35:00 15.9 C 67 % 9.79 C
153 11-04-2015 12:40:00 16.1 C 66 % 9.75 C
154 11-04-2015 12:45:00 16.2 C 67 % 10.07 C
155 11-04-2015 12:50:00 16.2 C 66 % 9.85 C
156 11-04-2015 12:55:00 16.1 C 67 % 9.98 C
157 11-04-2015 13:00:00 16 C 67 % 9.88 C
158 11-04-2015 13:05:00 15.9 C 67 % 9.79 C
159 11-04-2015 13:10:00 15.8 C 67 % 9.69 C
160 11-04-2015 13:15:00 15.6 C 68 % 9.72 C
161 11-04-2015 13:20:00 15.3 C 69 % 9.65 C
162 11-04-2015 13:25:00 15.3 C 70 % 9.87 C
163 11-04-2015 13:30:00 15.5 C 71 % 10.27 C
164 11-04-2015 13:35:00 15.7 C 69 % 10.03 C
165 11-04-2015 13:40:00 15.8 C 69 % 10.13 C
166 11-04-2015 13:45:00 15.8 C 70 % 10.34 C
167 11-04-2015 13:50:00 15.6 C 69 % 9.94 C
168 11-04-2015 13:55:00 15.3 C 70 % 9.87 C
169 11-04-2015 14:00:00 15.1 C 71 % 9.89 C
170 11-04-2015 14:05:00 15 C 72 % 10 C
171 11-04-2015 14:10:00 15.1 C 72 % 10.09 C
172 11-04-2015 14:15:00 15.4 C 71 % 10.17 C
173 11-04-2015 14:20:00 15.7 C 70 % 10.25 C
174 11-04-2015 14:25:00 15.8 C 69 % 10.13 C
175 11-04-2015 14:30:00 16.1 C 70 % 10.63 C
Sensor: Nr:Datum:Temp:Feuchte:Taupunkt:
Aussen-T/F 176 11-04-2015 14:35:00 16.3 C 68 % 10.39 C
177 11-04-2015 14:40:00 16.6 C 66 % 10.23 C
178 11-04-2015 14:45:00 16.6 C 67 % 10.45 C
179 11-04-2015 14:50:00 16.8 C 66 % 10.42 C
180 11-04-2015 14:55:00 16.7 C 65 % 10.09 C
181 11-04-2015 15:00:00 16.5 C 66 % 10.13 C
182 11-04-2015 15:05:00 16.4 C 66 % 10.04 C
183 11-04-2015 15:10:00 16.3 C 67 % 10.17 C
184 11-04-2015 15:15:00 16.1 C 67 % 9.98 C
185 11-04-2015 15:20:00 15.9 C 68 % 10.01 C
186 11-04-2015 15:25:00 15.7 C 68 % 9.82 C
187 11-04-2015 15:30:00 15.6 C 69 % 9.94 C
188 11-04-2015 15:35:00 15.4 C 70 % 9.96 C
189 11-04-2015 15:40:00 15.4 C 70 % 9.96 C
190 11-04-2015 15:45:00 15.4 C 70 % 9.96 C
191 11-04-2015 15:50:00 15.6 C 69 % 9.94 C
192 11-04-2015 15:55:00 15.6 C 68 % 9.72 C
193 11-04-2015 16:00:00 15.7 C 69 % 10.03 C
194 11-04-2015 16:05:00 16.1 C 67 % 9.98 C
195 11-04-2015 16:10:00 16.4 C 66 % 10.04 C
196 11-04-2015 16:15:00 16.4 C 65 % 9.81 C
197 11-04-2015 16:20:00 16.2 C 65 % 9.62 C
198 11-04-2015 16:25:00 16.1 C 66 % 9.75 C
199 11-04-2015 16:30:00 16.2 C 65 % 9.62 C
200 11-04-2015 16:35:00 16.2 C 65 % 9.62 C
Sensor: Nr:Datum:Temp:Feuchte:Taupunkt:
Aussen-T/F 201 11-04-2015 16:40:00 16.2 C 65 % 9.62 C
202 11-04-2015 16:45:00 16.1 C 65 % 9.53 C
203 11-04-2015 16:50:00 16 C 65 % 9.43 C
204 11-04-2015 16:55:00 15.8 C 65 % 9.24 C
205 11-04-2015 17:00:00 15.7 C 66 % 9.37 C
206 11-04-2015 17:05:00 15.6 C 67 % 9.5 C
207 11-04-2015 17:10:00 15.7 C 67 % 9.6 C
208 11-04-2015 17:15:00 15.8 C 67 % 9.69 C
209 11-04-2015 17:20:00 15.9 C 66 % 9.56 C
210 11-04-2015 17:25:00 15.9 C 67 % 9.79 C
211 11-04-2015 17:30:00 16.1 C 67 % 9.98 C
212 11-04-2015 17:35:00 16.1 C 67 % 9.98 C
213 11-04-2015 17:40:00 16 C 68 % 10.1 C
214 11-04-2015 17:45:00 15.9 C 68 % 10.01 C
215 11-04-2015 17:50:00 15.7 C 69 % 10.03 C
216 11-04-2015 17:55:00 15.5 C 69 % 9.84 C
217 11-04-2015 18:00:00 15.4 C 69 % 9.75 C
218 11-04-2015 18:05:00 15.3 C 69 % 9.65 C
219 11-04-2015 18:10:00 15.2 C 70 % 9.77 C
220 11-04-2015 18:15:00 15.1 C 70 % 9.67 C
221 11-04-2015 18:20:00 15.1 C 69 % 9.46 C
222 11-04-2015 18:25:00 14.9 C 70 % 9.48 C
223 11-04-2015 18:30:00 14.9 C 69 % 9.27 C
224 11-04-2015 18:35:00 14.9 C 69 % 9.27 C
225 11-04-2015 18:40:00 14.9 C 68 % 9.05 C
Sensor: Nr:Datum:Temp:Feuchte:Taupunkt:
Aussen-T/F 226 11-04-2015 18:45:00 14.8 C 67 % 8.74 C
227 11-04-2015 18:50:00 14.9 C 67 % 8.83 C
228 11-04-2015 18:55:00 14.9 C 67 % 8.83 C
229 11-04-2015 19:00:00 14.9 C 67 % 8.83 C
230 11-04-2015 19:05:00 14.9 C 67 % 8.83 C
231 11-04-2015 19:10:00 14.8 C 67 % 8.74 C
232 11-04-2015 19:15:00 14.8 C 67 % 8.74 C
233 11-04-2015 19:20:00 14.7 C 67 % 8.64 C
234 11-04-2015 19:25:00 14.7 C 68 % 8.86 C
235 11-04-2015 19:30:00 14.6 C 68 % 8.77 C
236 11-04-2015 19:35:00 14.5 C 68 % 8.67 C
237 11-04-2015 19:40:00 14.4 C 68 % 8.58 C
238 11-04-2015 19:45:00 14.4 C 69 % 8.79 C
239 11-04-2015 19:50:00 14.4 C 69 % 8.79 C
240 11-04-2015 19:55:00 14.3 C 70 % 8.91 C
241 11-04-2015 20:00:00 14.2 C 70 % 8.81 C
242 11-04-2015 20:05:00 14.1 C 71 % 8.93 C
243 11-04-2015 20:10:00 14.1 C 71 % 8.93 C
244 11-04-2015 20:15:00 13.9 C 72 % 8.94 C
245 11-04-2015 20:20:00 13.9 C 72 % 8.94 C
246 11-04-2015 20:25:00 13.9 C 72 % 8.94 C
247 11-04-2015 20:30:00 13.9 C 72 % 8.94 C
248 11-04-2015 20:35:00 13.8 C 72 % 8.85 C
249 11-04-2015 20:40:00 13.8 C 73 % 9.05 C
250 11-04-2015 20:45:00 13.8 C 73 % 9.05 C
Sensor: Nr:Datum:Temp:Feuchte:Taupunkt:
Aussen-T/F 251 11-04-2015 20:50:00 13.8 C 73 % 9.05 C
252 11-04-2015 20:55:00 13.7 C 74 % 9.15 C
253 11-04-2015 21:00:00 13.7 C 74 % 9.15 C
254 11-04-2015 21:05:00 13.6 C 75 % 9.26 C
255 11-04-2015 21:10:00 13.5 C 76 % 9.36 C
256 11-04-2015 21:15:00 13.3 C 77 % 9.36 C
257 11-04-2015 21:20:00 13.3 C 77 % 9.36 C
258 11-04-2015 21:25:00 13.3 C 77 % 9.36 C
259 11-04-2015 21:30:00 13.2 C 77 % 9.26 C
260 11-04-2015 21:35:00 13.2 C 78 % 9.45 C
261 11-04-2015 21:40:00 12.9 C 80 % 9.54 C
262 11-04-2015 21:45:00 12.4 C 82 % 9.42 C
263 11-04-2015 21:50:00 11.8 C 81 % 8.65 C
264 11-04-2015 21:55:00 11.5 C 84 % 8.89 C
265 11-04-2015 22:00:00 11.2 C 87 % 9.12 C
266 11-04-2015 22:05:00 10.8 C 88 % 8.89 C
267 11-04-2015 22:10:00 10.7 C 89 % 8.96 C
268 11-04-2015 22:15:00 10.6 C 88 % 8.7 C
269 11-04-2015 22:20:00 10.6 C 88 % 8.7 C
270 11-04-2015 22:25:00 10.6 C 88 % 8.7 C
271 11-04-2015 22:30:00 10.4 C 84 % 7.82 C
272 11-04-2015 22:35:00 10.2 C 82 % 7.27 C
273 11-04-2015 22:40:00 10.1 C 80 % 6.81 C
274 11-04-2015 22:45:00 9.8 C 78 % 6.15 C
275 11-04-2015 22:50:00 9.8 C 79 % 6.34 C
Sensor: Nr:Datum:Temp:Feuchte:Taupunkt:
Aussen-T/F 276 11-04-2015 22:55:00 9.7 C 80 % 6.42 C
277 11-04-2015 23:00:00 9.5 C 83 % 6.76 C
278 11-04-2015 23:05:00 9.3 C 85 % 6.91 C
279 11-04-2015 23:10:00 9.1 C 86 % 6.89 C
280 11-04-2015 23:15:00 9 C 84 % 6.45 C
281 11-04-2015 23:20:00 9.1 C 84 % 6.54 C
282 11-04-2015 23:25:00 9.1 C 83 % 6.37 C
283 11-04-2015 23:30:00 9.1 C 84 % 6.54 C
284 11-04-2015 23:35:00 9.1 C 85 % 6.72 C
285 11-04-2015 23:40:00 9.1 C 85 % 6.72 C
286 11-04-2015 23:45:00 9.1 C 84 % 6.54 C
287 11-04-2015 23:50:00 9.1 C 84 % 6.54 C
288 11-04-2015 23:55:00 9.1 C 85 % 6.72 C

Legende:
   Min
   Max


Maximal/Minimal-Werte vom 11.04.2015 - 11.04.2015

Sensor Min Max Avg
Temp
(Aussen-T/F)
7.3 °C
11-04-2015  06:10:00
16.8 °C
11-04-2015  14:50:00
12.37 °C
Feuchte
(Aussen-T/F)
63 %
11-04-2015  01:10:00
89 %
11-04-2015  22:10:00
70.67 %
Taupunkt
(Aussen-T/F)
3.23 C
11-04-2015  03:15:00
10.63 C
11-04-2015  14:30:00
7.12 C

Die Daten stammen von einer Davis Vantage Pro 2 Wetter-Station und werden unter Linux mit der Software wview2wettercgi und aufbereitet. Alle Angaben erfolgen ohne Gewähr für ihre Vollständigkeit oder Richtigkeit.
Kontakt: Rainer Krienke krienke@uni-koblenz.de . Meine Webseiten an der Uni Koblenz oder privat.
Version: $Revision: 0.78 $